ADDS METAR Data INFO
IDs: Format: Raw Decoded Include TAF

Data at: 0435 UTC 24 Apr 2018

KTPL 240351Z AUTO 03006KT 10SM CLR 17/11 A3005 RMK AO2 SLP184 T01670106
KTPL 240251Z AUTO 00000KT 10SM CLR 18/11 A3004 RMK AO2 SLP183 T01780106 53017
KTPL 240151Z AUTO 04006KT 10SM CLR 20/11 A3001 RMK AO2 SLP175 T02000111
KTPL 240051Z AUTO 35004KT 10SM CLR 23/10 A3000 RMK AO2 SLP169 T02280100
KTPL 232351Z AUTO 34008KT 10SM CLR 26/10 A2999 RMK AO2 SLP166 T02560100 10261 20228 56013
KTPL 232251Z AUTO 33008KT 10SM CLR 26/10 A2999 RMK AO2 SLP167 T02610100
KTPL 232151Z AUTO 35007G14KT 10SM CLR 26/10 A3001 RMK AO2 SLP172 T02610100
KTPL 232051Z AUTO 35011KT 10SM CLR 26/10 A3003 RMK AO2 SLP179 T02610100 58026
KTPL 231851Z AUTO 34013G16KT 10SM CLR 24/10 A3008 RMK AO2 SLP197 T02440100
KTPL 231751Z AUTO 33010G19KT 10SM CLR 23/11 A3011 RMK AO2 SLP207 T02330106 10233 20072 58012
KTPL 231651Z AUTO 31010KT 10SM CLR 22/10 A3012 RMK AO2 SLP212 T02170100
KTPL 231551Z AUTO 33010KT 10SM CLR 19/10 A3013 RMK AO2 SLP216 T01940100
KTPL 231451Z AUTO 33010KT 10SM CLR 17/09 A3014 RMK AO2 SLP219 T01720094 50015
KTPL 231351Z AUTO 30009KT 10SM CLR 14/09 A3014 RMK AO2 SLP220 T01440089
KTPL 231251Z AUTO 30004KT 10SM CLR 11/08 A3013 RMK AO2 SLP218 T01060083
KTPL 231151Z AUTO 00000KT 10SM CLR 08/07 A3010 RMK AO2 SLP205 T00780067 10100 20067 53013
KTPL 231051Z AUTO 00000KT 10SM CLR 07/07 A3007 RMK AO2 SLP196 T00720072
KTPL 230951Z AUTO 28005KT 10SM CLR 07/06 A3006 RMK AO2 SLP193 T00670056
KTPL 230851Z AUTO 27003KT 10SM CLR 08/06 A3006 RMK AO2 SLP192 T00780061 55005
KTPL 230751Z AUTO 19003KT 10SM CLR 09/07 A3005 RMK AO2 SLP190 T00890072
KTPL 230651Z AUTO 32004KT 10SM CLR 09/08 A3006 RMK AO2 SLP193 T00940078
KTPL 230551Z AUTO 00000KT 10SM CLR 10/07 A3007 RMK AO2 SLP197 T01000072 10206 20100 402220100 51001
KTPL 230451Z AUTO 02005KT 10SM CLR 12/08 A3007 RMK AO2 SLP196 T01170078
KTPL 230351Z AUTO 02005KT 10SM CLR 13/08 A3007 RMK AO2 SLP198 T01280078
KTPL 230251Z AUTO 02006KT 10SM CLR 14/07 A3007 RMK AO2 SLP196 T01440072 53012
KTPL 230151Z AUTO 02004KT 10SM CLR 16/07 A3005 RMK AO2 SLP190 T01610072
KTPL 230051Z AUTO 34006KT 10SM CLR 18/08 A3003 RMK AO2 SLP183 T01830078
KTPL 222351Z AUTO 34010KT 10SM CLR 21/08 A3003 RMK AO2 SLP181 T02060078 10222 20183 55007
KTPL 222251Z AUTO 33014KT 10SM CLR 22/07 A3002 RMK AO2 SLP178 T02170072
KTPL 222151Z AUTO 34013KT 10SM CLR 22/08 A3003 RMK AO2 SLP180 T02220078
KTPL 222051Z AUTO 33010KT 10SM CLR 21/08 A3005 RMK AO2 SLP188 T02110083 56023
KTPL 221951Z AUTO 34015G20KT 10SM CLR 21/08 A3007 RMK AO2 SLP196 T02060083
KTPL 221851Z AUTO 35015G20KT 10SM SCT045 19/08 A3009 RMK AO2 SLP201 T01940083
KTPL 221751Z AUTO 31013G19KT 10SM SCT035 19/08 A3012 RMK AO2 SLP211 T01890083 10189 20111 58006
KTPL 221651Z AUTO 32014G18KT 10SM SCT029 16/08 A3014 RMK AO2 SLP219 T01610083
KTPL 221646Z AUTO 31014G19KT 10SM SCT029 16/09 A3014 RMK AO2